METAR Data
IDs: Format: Raw Decoded Include TAF

Data at: 2325 UTC 19 Jan 2019

PASN 192253Z AUTO 07024G29KT 10SM FEW017 00/M04 A2992 RMK AO2 PK WND 07029/2227 SLP134 T00001039 TSNO
PASN 192214Z AUTO 07024G27KT 10SM SCT018 00/M04 A2993 RMK AO2 PK WND 07029/2155 T00001039 TSNO
PASN 192206Z AUTO 07021G29KT 10SM BKN018 M01/M04 A2993 RMK AO2 PK WND 07029/2155 T10061039 TSNO
PASN 192153Z AUTO 07022G29KT 10SM SCT018 M01/M04 A2993 RMK AO2 PK WND 07031/2055 SLP137 T10061044 TSNO
PASN 192053Z AUTO 07021KT 10SM FEW020 M01/M05 A2994 RMK AO2 PK WND 07031/2030 SLP140 T10061050 56003 TSNO
PASN 191953Z AUTO 07021G33KT 10SM CLR M01/M05 A2994 RMK AO2 PK WND 06033/1947 SLP140 T10111050 TSNO
PASN 191853Z AUTO 07019G28KT 10SM CLR M01/M06 A2995 RMK AO2 PK WND 07028/1848 SLP142 T10111056 TSNO
PASN 191753Z AUTO 07018G25KT 10SM CLR M02/M06 A2995 RMK AO2 PK WND 07027/1704 SLP143 T10171061 11017 21028 55006 TSNO
PASN 191653Z AUTO 06018G23KT 10SM CLR M02/M07 A2995 RMK AO2 PK WND 07026/1626 SLP141 T10221067 TSNO
PASN 191553Z AUTO 06018G26KT 10SM CLR M02/M07 A2995 RMK AO2 PK WND 06026/1546 SLP142 T10221067 TSNO
PASN 191453Z AUTO 06016G23KT 10SM CLR M02/M07 A2997 RMK AO2 SLP149 T10221067 56007 TSNO
PASN 191353Z AUTO 06017KT 10SM CLR M03/M07 A2997 RMK AO2 SLP149 T10281067 TSNO
PASN 191253Z AUTO 06016KT 10SM CLR M02/M07 A2998 RMK AO2 SLP154 T10221067 TSNO
PASN 191153Z AUTO 05016KT 10SM CLR M03/M06 A2999 RMK AO2 SLP156 T10281061 11028 21039 58009 TSNO
PASN 191053Z AUTO 05015KT 10SM CLR M03/M07 A3000 RMK AO2 SLP160 T10331067 TSNO
PASN 190953Z AUTO 05013KT 10SM CLR M04/M07 A3001 RMK AO2 SLP162 T10391072 TSNO
PASN 190853Z AUTO 05011KT 10SM CLR M04/M07 A3002 RMK AO2 SLP165 T10391072 410171039 56003 TSNO
PASN 190753Z AUTO 05013KT 10SM CLR M04/M08 A3002 RMK AO2 SLP165 T10391078 TSNO
PASN 190653Z AUTO 05012KT 10SM FEW020 M03/M07 A3002 RMK AO2 SLP167 T10331072 TSNO
PASN 190553Z AUTO 05011KT 10SM SCT019 M04/M07 A3003 RMK AO2 SLP169 T10391072 11017 21039 56007 TSNO
PASN 190539Z AUTO 05011KT 10SM SCT018 M04/M07 A3002 RMK AO2 T10391072 TSNO
PASN 190453Z AUTO 04011KT 10SM BKN020 M03/M07 A3003 RMK AO2 SLP169 T10331067 TSNO
PASN 190353Z AUTO 04013KT 10SM BKN020 M03/M07 A3004 RMK AO2 SLP173 T10331072 TSNO
PASN 190253Z AUTO 03015KT 10SM BKN020 M03/M07 A3005 RMK AO2 SLP176 T10281067 55002 TSNO
PASN 190153Z AUTO 04013KT 10SM BKN020 M03/M07 A3004 RMK AO2 SLP174 T10281067 TSNO
PASN 190113Z AUTO 04014KT 10SM BKN020 M02/M06 A3005 RMK AO2 T10221061 TSNO
PASN 190053Z AUTO 04016KT 8SM SCT019 M02/M06 A3005 RMK AO2 SLP176 T10221061 TSNO
PASN 182353Z AUTO 04013KT 10SM CLR M02/M06 A3005 RMK AO2 SLP178 T10171061 11017 21033 58015 TSNO
PASN 182253Z AUTO 05016KT 10SM CLR M02/M06 A3007 RMK AO2 SLP184 T10171061 TSNO
PASN 182207Z AUTO 04015KT 10SM FEW019 M02/M06 A3009 RMK AO2 T10221061 TSNO
PASN 182153Z AUTO 04014KT 10SM BKN019 M02/M06 A3010 RMK AO2 SLP192 T10221061 TSNO
PASN 182140Z AUTO 03013KT 10SM BKN019 M02/M06 A3010 RMK AO2 T10221061 TSNO
PASN 182053Z AUTO 03015KT 10SM FEW019 M03/M06 A3010 RMK AO2 SLP193 T10281061 51006 TSNO
PASN 181953Z AUTO 03013KT 10SM CLR M03/M07 A3009 RMK AO2 SLP191 T10281067 TSNO
PASN 181853Z AUTO 04014KT 10SM CLR M03/M07 A3009 RMK AO2 SLP189 T10281072 TSNO
PASN 181805Z AUTO 03013KT 10SM SCT021 M03/M07 A3008 RMK AO2 T10281067 TSNO
PASN 181753Z AUTO 04014KT 10SM BKN022 M03/M07 A3008 RMK AO2 SLP187 T10281067 11028 21033 55002 TSNO
PASN 181653Z AUTO 03012KT 10SM CLR M03/M07 A3008 RMK AO2 SLP185 T10281067 TSNO
PASN 181553Z AUTO 03014KT 10SM CLR M03/M07 A3008 RMK AO2 SLP186 T10331072 TSNO
PASN 181453Z AUTO 03015KT 10SM SCT023 M03/M07 A3009 RMK AO2 SLP189 T10281072 50001 TSNO
PASN 181416Z AUTO 02012KT 10SM SCT023 M03/M07 A3009 RMK AO2 T10331072 TSNO
PASN 181353Z AUTO 02012KT 10SM BKN023 M03/M07 A3009 RMK AO2 SLP191 T10331067 TSNO
PASN 181340Z AUTO 02012KT 10SM BKN024 M03/M07 A3009 RMK AO2 T10331067 TSNO
PASN 181331Z AUTO 02011KT 10SM SCT024 M03/M07 A3009 RMK AO2 T10331072 TSNO
PASN 181253Z AUTO 01013KT 10SM BKN023 M03/M07 A3009 RMK AO2 SLP189 T10331067 TSNO
PASN 181249Z AUTO 01011KT 10SM BKN023 M03/M07 A3009 RMK AO2 TSNO
PASN 181153Z AUTO 01011KT 10SM SCT024 M03/M07 A3009 RMK AO2 SLP189 70002 T10331072 11022 21033 51008 TSNO